Time;durP1;ratioP1;P1;durP2;ratioP2;P2;SDS_P1;SDS_P2;PMS_P1;PMS_P2;Temp;Humidity;BMP_temperature;BMP_pressure;BME280_temperature;BME280_humidity;BME280_pressure;Samples;Min_cycle;Max_cycle;Signal;HPM_P1;HPM_P2
2021/11/07 00:01:12;;;;;;;17.58;12.95;;;2.20;99.90;;;;;;4994443;28;20217;-84
2021/11/07 00:03:43;;;;;;;17.40;11.52;;;2.10;99.90;;;;;;4998955;28;20211;-84
2021/11/07 00:06:14;;;;;;;36.40;15.68;;;2.20;99.90;;;;;;4998896;28;20216;-84
2021/11/07 00:08:50;;;;;;;16.25;10.70;;;2.20;99.90;;;;;;4999110;28;20230;-84
2021/11/07 00:11:24;;;;;;;22.00;12.30;;;2.20;99.90;;;;;;4997398;28;20202;-85
2021/11/07 00:13:51;;;;;;;16.05;11.95;;;2.30;99.90;;;;;;4980628;28;20234;-85
2021/11/07 00:16:24;;;;;;;20.48;13.63;;;2.40;99.90;;;;;;4990492;28;20261;-84
2021/11/07 00:19:03;;;;;;;38.83;15.68;;;2.50;99.90;;;;;;4996975;28;20223;-85
2021/11/07 00:21:32;;;;;;;34.47;16.92;;;2.60;99.90;;;;;;4983305;28;20257;-85
2021/11/07 00:24:03;;;;;;;21.45;13.48;;;2.70;99.90;;;;;;4989033;28;20285;-85
2021/11/07 00:26:34;;;;;;;63.92;18.27;;;2.70;99.90;;;;;;4983916;28;20291;-85
2021/11/07 00:29:05;;;;;;;29.08;14.20;;;2.70;99.90;;;;;;4985972;28;20237;-85
2021/11/07 00:31:41;;;;;;;18.48;12.65;;;2.70;99.90;;;;;;4975321;28;20321;-85
2021/11/07 00:36:52;;;;;;;17.23;11.60;;;2.70;99.90;;;;;;4986345;28;20767;-85
2021/11/07 00:39:26;;;;;;;28.42;11.35;;;2.60;99.90;;;;;;4987407;28;20202;-84
2021/11/07 00:41:58;;;;;;;42.70;15.20;;;2.30;99.90;;;;;;4988655;28;20654;-84
2021/11/07 00:44:31;;;;;;;20.27;11.52;;;2.00;99.90;;;;;;4986653;28;20213;-84
2021/11/07 00:47:10;;;;;;;22.60;11.70;;;1.90;99.90;;;;;;4984997;28;20315;-85
2021/11/07 00:49:41;;;;;;;26.88;10.63;;;1.90;99.90;;;;;;4984986;28;20314;-84
2021/11/07 00:52:18;;;;;;;21.65;10.55;;;1.80;99.90;;;;;;4984113;28;20266;-84
2021/11/07 00:54:53;;;;;;;12.90;9.35;;;1.80;99.90;;;;;;4984886;28;20284;-84
2021/11/07 00:57:23;;;;;;;13.30;9.57;;;1.70;99.90;;;;;;4987581;28;20291;-84
2021/11/07 00:59:56;;;;;;;11.43;8.80;;;1.70;99.90;;;;;;4985255;28;20214;-85
2021/11/07 01:02:26;;;;;;;14.30;9.95;;;1.70;99.90;;;;;;4975699;28;20217;-84
2021/11/07 01:04:53;;;;;;;20.08;8.75;;;1.60;99.90;;;;;;4986025;28;20196;-84
2021/11/07 01:07:23;;;;;;;17.45;11.00;;;1.70;99.90;;;;;;4986315;28;20212;-84
2021/11/07 01:09:52;;;;;;;12.75;9.40;;;1.70;99.90;;;;;;4985840;28;20208;-84
2021/11/07 01:12:21;;;;;;;16.48;10.75;;;1.80;99.90;;;;;;4985293;28;20228;-84
2021/11/07 01:14:49;;;;;;;15.75;10.23;;;1.60;99.90;;;;;;4986311;28;20206;-84
2021/11/07 01:17:16;;;;;;;18.23;9.88;;;1.40;99.90;;;;;;4986587;28;20608;-84
2021/11/07 01:19:43;;;;;;;15.30;10.55;;;1.20;99.90;;;;;;4986884;28;20216;-83
2021/11/07 01:22:14;;;;;;;14.20;10.80;;;1.30;99.90;;;;;;4990592;28;20228;-84
2021/11/07 01:24:49;;;;;;;13.43;9.85;;;1.50;99.90;;;;;;4984979;28;20592;-84
2021/11/07 01:27:21;;;;;;;15.13;11.40;;;1.60;99.90;;;;;;4987959;28;20217;-84
2021/11/07 01:29:50;;;;;;;12.98;9.32;;;1.70;99.90;;;;;;4994104;28;20207;-84
2021/11/07 01:32:20;;;;;;;13.40;9.48;;;1.90;99.90;;;;;;4989340;28;20236;-84
2021/11/07 01:34:55;;;;;;;11.90;10.02;;;2.00;99.90;;;;;;4988829;28;20232;-85
2021/11/07 01:37:25;;;;;;;14.95;10.60;;;2.10;99.90;;;;;;4989548;28;20194;-84
2021/11/07 01:39:57;;;;;;;16.40;11.90;;;2.00;99.90;;;;;;4989562;28;20212;-84
2021/11/07 01:42:32;;;;;;;15.95;11.77;;;2.00;99.90;;;;;;4984428;28;20223;-84
2021/11/07 01:45:02;;;;;;;15.57;10.55;;;2.10;99.90;;;;;;4988935;28;20212;-84
2021/11/07 01:47:30;;;;;;;11.80;10.25;;;2.20;99.90;;;;;;4988857;28;20206;-84
2021/11/07 01:49:57;;;;;;;13.43;10.57;;;2.40;99.90;;;;;;4989975;28;20212;-85
2021/11/07 01:52:26;;;;;;;13.98;11.02;;;2.40;99.90;;;;;;4989006;28;20287;-84
2021/11/07 01:54:57;;;;;;;12.02;10.68;;;2.50;99.90;;;;;;4988888;28;20262;-84
2021/11/07 01:57:27;;;;;;;17.85;12.55;;;2.60;99.90;;;;;;4989662;28;20256;-84
2021/11/07 01:59:57;;;;;;;15.52;10.35;;;2.70;99.90;;;;;;4990457;28;20207;-84
2021/11/07 02:02:26;;;;;;;16.35;10.45;;;2.80;99.90;;;;;;4989172;28;20235;-84
2021/11/07 02:04:53;;;;;;;15.93;11.15;;;2.80;99.90;;;;;;4989121;28;20210;-85
2021/11/07 02:07:20;;;;;;;12.27;9.73;;;2.90;99.90;;;;;;4987458;28;20229;-84
2021/11/07 02:09:47;;;;;;;14.13;11.82;;;2.90;99.90;;;;;;4988220;28;20289;-84
2021/11/07 02:12:14;;;;;;;15.57;11.52;;;2.90;99.90;;;;;;4988176;28;20285;-85
2021/11/07 02:14:43;;;;;;;17.98;13.32;;;3.00;99.90;;;;;;4988971;28;20214;-84
2021/11/07 02:17:11;;;;;;;19.02;13.23;;;2.90;99.90;;;;;;4987545;28;20264;-84
2021/11/07 02:19:41;;;;;;;19.77;12.57;;;2.90;99.90;;;;;;4985099;28;20705;-84
2021/11/07 02:22:10;;;;;;;15.90;12.93;;;2.80;99.90;;;;;;4988781;28;20273;-83
2021/11/07 02:24:39;;;;;;;21.33;14.43;;;2.80;99.90;;;;;;4987559;28;20198;-83
2021/11/07 02:27:06;;;;;;;18.13;13.15;;;2.70;99.90;;;;;;4993008;28;20232;-83
2021/11/07 02:29:36;;;;;;;15.82;12.07;;;2.60;99.90;;;;;;4987197;28;20372;-83
2021/11/07 02:32:04;;;;;;;17.75;13.07;;;2.50;99.90;;;;;;4986733;28;20220;-83
2021/11/07 02:34:32;;;;;;;17.52;14.13;;;2.60;99.90;;;;;;4987102;28;20675;-83
2021/11/07 02:36:59;;;;;;;19.38;14.63;;;2.50;99.90;;;;;;4986746;28;20563;-83
2021/11/07 02:39:27;;;;;;;20.92;15.80;;;2.50;99.90;;;;;;5001776;28;20217;-83
2021/11/07 02:41:54;;;;;;;23.33;15.35;;;2.60;99.90;;;;;;4990401;28;20203;-83
2021/11/07 02:44:29;;;;;;;22.45;15.52;;;2.60;99.90;;;;;;5006864;28;20303;-82
2021/11/07 02:46:56;;;;;;;21.70;16.35;;;2.60;99.90;;;;;;5005992;28;20227;-85
2021/11/07 02:49:23;;;;;;;20.30;14.55;;;2.60;99.90;;;;;;5006136;28;20219;-83
2021/11/07 02:51:50;;;;;;;21.15;13.57;;;2.60;99.90;;;;;;5001845;28;20213;-83
2021/11/07 02:54:17;;;;;;;16.33;14.50;;;2.60;99.90;;;;;;5006463;28;20232;-83
2021/11/07 02:56:45;;;;;;;16.23;12.68;;;2.70;99.90;;;;;;5004850;28;20218;-83
2021/11/07 02:59:20;;;;;;;16.00;13.20;;;2.60;99.90;;;;;;5006112;28;20211;-82
2021/11/07 03:01:47;;;;;;;13.82;12.38;;;2.60;99.90;;;;;;5006473;28;20206;-83
2021/11/07 03:04:14;;;;;;;21.38;14.52;;;2.50;99.90;;;;;;5008229;28;20229;-82
2021/11/07 03:06:42;;;;;;;17.75;13.75;;;2.50;99.90;;;;;;5010750;28;20228;-83
2021/11/07 03:09:14;;;;;;;15.85;14.00;;;2.20;99.90;;;;;;5009015;28;20586;-82
2021/11/07 03:11:42;;;;;;;19.30;14.05;;;2.10;99.90;;;;;;4994325;28;20408;-82
2021/11/07 03:14:14;;;;;;;19.08;15.52;;;2.10;99.90;;;;;;5003558;28;20229;-83
2021/11/07 03:16:43;;;;;;;15.45;11.77;;;2.00;99.90;;;;;;4994076;28;20210;-83
2021/11/07 03:19:10;;;;;;;19.33;14.75;;;2.00;99.90;;;;;;4987898;28;20217;-82
2021/11/07 03:21:37;;;;;;;16.75;11.93;;;2.10;99.90;;;;;;4989887;28;20271;-82
2021/11/07 03:24:04;;;;;;;17.30;12.38;;;1.90;99.90;;;;;;4990592;28;20229;-82
2021/11/07 03:26:33;;;;;;;21.80;16.08;;;1.80;99.90;;;;;;4989321;28;20231;-83
2021/11/07 03:29:02;;;;;;;22.17;15.75;;;1.80;99.90;;;;;;4989881;28;20296;-83
2021/11/07 03:31:37;;;;;;;19.73;12.75;;;1.70;99.90;;;;;;4998917;28;20206;-85
2021/11/07 03:34:08;;;;;;;18.33;14.50;;;1.90;99.90;;;;;;4987168;28;20224;-83
2021/11/07 03:36:45;;;;;;;17.60;13.40;;;1.90;99.90;;;;;;5001883;28;20201;-82
2021/11/07 03:39:14;;;;;;;18.17;13.95;;;2.00;99.90;;;;;;5008526;28;20197;-83
2021/11/07 03:41:41;;;;;;;16.75;12.45;;;2.00;99.90;;;;;;5007038;28;20205;-86
2021/11/07 03:44:08;;;;;;;14.98;13.45;;;2.00;99.90;;;;;;5008178;28;20233;-83
2021/11/07 03:46:38;;;;;;;20.83;14.77;;;2.10;99.90;;;;;;5008709;28;20232;-83
2021/11/07 03:49:06;;;;;;;18.85;13.88;;;2.00;99.90;;;;;;4991179;28;20210;-84
2021/11/07 03:51:35;;;;;;;14.15;11.75;;;2.10;99.90;;;;;;5000526;28;20198;-84
2021/11/07 03:54:03;;;;;;;19.80;14.30;;;2.20;99.90;;;;;;5007280;28;20249;-83
2021/11/07 03:56:30;;;;;;;18.65;15.30;;;2.20;99.90;;;;;;4997124;28;20694;-84
2021/11/07 03:58:57;;;;;;;20.33;15.43;;;2.20;99.90;;;;;;4988238;28;20220;-84
2021/11/07 04:01:24;;;;;;;16.85;12.70;;;2.30;99.90;;;;;;4997269;28;20213;-83
2021/11/07 04:03:52;;;;;;;18.42;14.15;;;2.30;99.90;;;;;;5006549;28;20230;-84
2021/11/07 04:06:19;;;;;;;17.90;14.38;;;2.40;99.90;;;;;;4996002;28;20241;-84
2021/11/07 04:08:47;;;;;;;24.33;16.40;;;2.40;99.90;;;;;;4988735;28;20210;-84
2021/11/07 04:11:14;;;;;;;21.08;14.38;;;2.40;99.90;;;;;;4992927;28;20209;-83
2021/11/07 04:13:41;;;;;;;23.98;15.75;;;2.20;99.90;;;;;;4997058;28;20229;-83
2021/11/07 04:16:10;;;;;;;16.73;12.50;;;2.30;99.90;;;;;;4997003;28;20274;-83
2021/11/07 04:18:39;;;;;;;21.30;14.38;;;2.30;99.90;;;;;;4995396;28;20220;-84
2021/11/07 04:21:08;;;;;;;23.92;15.43;;;2.30;99.90;;;;;;4993982;28;20202;-84
2021/11/07 04:23:36;;;;;;;20.35;13.60;;;2.30;99.90;;;;;;5008273;28;20229;-82
2021/11/07 04:26:04;;;;;;;19.15;14.43;;;2.30;99.90;;;;;;5009204;28;20686;-84
2021/11/07 04:28:31;;;;;;;21.10;16.10;;;2.30;99.90;;;;;;5003868;28;20212;-83
2021/11/07 04:30:58;;;;;;;18.20;14.63;;;2.30;99.90;;;;;;4998945;28;20216;-83
2021/11/07 04:33:25;;;;;;;25.15;16.10;;;2.20;99.90;;;;;;5011048;28;20229;-83
2021/11/07 04:35:54;;;;;;;19.33;16.73;;;2.20;99.90;;;;;;5009912;28;20216;-84
2021/11/07 04:38:22;;;;;;;18.65;14.98;;;2.10;99.90;;;;;;5003966;28;20197;-82
2021/11/07 04:40:49;;;;;;;24.48;15.13;;;2.20;99.90;;;;;;4989621;28;20255;-83
2021/11/07 04:43:17;;;;;;;19.83;13.95;;;2.20;99.90;;;;;;4989258;28;20224;-83
2021/11/07 04:45:44;;;;;;;23.85;14.88;;;2.20;99.90;;;;;;4987905;28;20304;-83
2021/11/07 04:48:10;;;;;;;19.45;15.15;;;2.30;99.90;;;;;;4989622;28;20249;-83
2021/11/07 04:50:37;;;;;;;19.77;14.38;;;2.50;99.90;;;;;;5008391;28;20305;-83
2021/11/07 04:53:05;;;;;;;21.92;15.95;;;2.40;99.90;;;;;;5008106;28;20235;-83
2021/11/07 04:55:35;;;;;;;19.50;15.35;;;2.40;99.90;;;;;;4984546;28;20684;-83
2021/11/07 04:58:03;;;;;;;21.65;16.00;;;2.30;99.90;;;;;;4980969;28;20224;-83
2021/11/07 05:00:31;;;;;;;23.27;17.67;;;2.30;99.90;;;;;;4998696;28;20262;-83
2021/11/07 05:02:58;;;;;;;17.33;14.13;;;2.50;99.90;;;;;;4999200;28;20724;-83
2021/11/07 05:05:25;;;;;;;20.35;15.23;;;2.50;99.90;;;;;;4998273;28;20216;-83
2021/11/07 05:07:53;;;;;;;19.92;13.95;;;2.40;99.90;;;;;;4999558;28;20229;-83
2021/11/07 05:10:20;;;;;;;20.90;14.77;;;2.40;99.90;;;;;;4982258;28;20202;-83
2021/11/07 05:12:48;;;;;;;19.20;13.02;;;2.50;99.90;;;;;;4980113;28;20233;-83
2021/11/07 05:15:16;;;;;;;17.63;13.10;;;2.40;99.90;;;;;;4991282;28;20204;-83
2021/11/07 05:17:43;;;;;;;21.38;13.10;;;2.50;99.90;;;;;;5000744;28;20201;-83
2021/11/07 05:20:12;;;;;;;15.10;11.80;;;2.50;99.90;;;;;;4964389;28;20246;-83
2021/11/07 05:22:39;;;;;;;15.00;13.27;;;2.50;99.90;;;;;;4963393;28;20234;-83
2021/11/07 05:25:08;;;;;;;20.63;13.13;;;2.40;99.90;;;;;;4998039;28;20212;-83
2021/11/07 05:27:35;;;;;;;19.90;12.88;;;2.30;99.90;;;;;;4999775;28;20587;-83
2021/11/07 05:30:06;;;;;;;15.73;12.25;;;2.40;99.90;;;;;;4982261;28;20225;-83
2021/11/07 05:32:33;;;;;;;21.58;13.07;;;2.50;99.90;;;;;;4983834;28;20230;-83
2021/11/07 05:34:59;;;;;;;14.95;12.40;;;2.40;99.90;;;;;;4999977;28;20208;-83
2021/11/07 05:37:26;;;;;;;20.27;12.68;;;2.50;99.90;;;;;;4990097;28;20205;-83
2021/11/07 05:39:53;;;;;;;16.27;13.00;;;2.60;99.90;;;;;;4980187;28;20233;-83
2021/11/07 05:42:20;;;;;;;16.95;12.27;;;2.70;99.90;;;;;;4987285;28;20226;-83
2021/11/07 05:44:48;;;;;;;16.63;12.20;;;2.70;99.90;;;;;;4998295;28;20212;-83
2021/11/07 05:47:16;;;;;;;15.77;12.27;;;2.70;99.90;;;;;;4991849;28;20220;-83
2021/11/07 05:49:43;;;;;;;18.35;14.65;;;2.70;99.90;;;;;;4979369;28;20224;-83
2021/11/07 05:52:10;;;;;;;22.08;14.40;;;2.70;99.90;;;;;;4984178;28;20698;-83
2021/11/07 05:54:37;;;;;;;16.40;12.45;;;2.70;99.90;;;;;;4994983;28;20212;-83
2021/11/07 05:57:04;;;;;;;17.75;14.73;;;2.70;99.90;;;;;;4978634;28;20205;-83
2021/11/07 05:59:31;;;;;;;19.85;13.55;;;2.70;99.90;;;;;;4981405;28;20206;-83
2021/11/07 06:01:58;;;;;;;18.25;14.70;;;2.60;99.90;;;;;;4998763;28;20224;-83
2021/11/07 06:04:26;;;;;;;19.40;13.40;;;2.60;99.90;;;;;;4998754;28;20224;-83
2021/11/07 06:06:53;;;;;;;18.55;13.60;;;2.60;99.90;;;;;;4998590;28;20240;-83
2021/11/07 06:09:20;;;;;;;18.50;14.23;;;2.50;99.90;;;;;;4999047;28;20209;-83
2021/11/07 06:11:47;;;;;;;16.92;11.80;;;2.40;99.90;;;;;;4999101;28;20221;-83
2021/11/07 06:14:14;;;;;;;18.40;12.30;;;2.30;99.90;;;;;;4984118;28;20228;-84
2021/11/07 06:16:42;;;;;;;16.08;13.80;;;2.30;99.90;;;;;;4983710;28;20640;-83
2021/11/07 06:19:08;;;;;;;19.35;13.00;;;2.30;99.90;;;;;;4983363;28;20218;-83
2021/11/07 06:21:37;;;;;;;22.52;13.90;;;2.20;99.90;;;;;;4984232;28;20212;-83
2021/11/07 06:24:07;;;;;;;19.35;13.55;;;2.30;99.90;;;;;;4998552;28;20310;-83
2021/11/07 06:26:34;;;;;;;20.20;12.93;;;2.30;99.90;;;;;;5002365;28;20211;-83
2021/11/07 06:29:00;;;;;;;24.50;15.15;;;2.30;99.90;;;;;;5001515;28;20208;-83
2021/11/07 06:31:27;;;;;;;20.27;14.07;;;2.30;99.90;;;;;;5001259;28;20215;-83
2021/11/07 06:33:54;;;;;;;16.75;14.43;;;2.40;99.90;;;;;;4993684;28;20233;-83
2021/11/07 06:36:21;;;;;;;20.52;15.05;;;2.30;99.90;;;;;;5001056;28;20247;-83
2021/11/07 06:38:49;;;;;;;18.58;14.73;;;2.30;99.90;;;;;;4992546;28;20283;-83
2021/11/07 06:41:16;;;;;;;23.13;14.50;;;2.30;99.90;;;;;;4997527;28;20207;-83
2021/11/07 06:43:43;;;;;;;19.45;16.75;;;2.30;99.90;;;;;;5000780;28;20229;-83
2021/11/07 06:46:10;;;;;;;21.25;14.85;;;2.30;99.90;;;;;;4990494;28;20671;-83
2021/11/07 06:48:37;;;;;;;21.95;15.88;;;2.20;99.90;;;;;;4998066;28;20687;-83
2021/11/07 06:51:04;;;;;;;21.67;18.27;;;2.30;99.90;;;;;;5000624;28;20663;-83
2021/11/07 06:53:31;;;;;;;21.60;15.07;;;2.40;99.90;;;;;;5000595;28;20252;-83
2021/11/07 06:55:59;;;;;;;25.67;15.65;;;2.50;99.90;;;;;;4993684;28;20337;-83
2021/11/07 06:58:26;;;;;;;27.52;16.85;;;2.50;99.90;;;;;;4980795;28;20207;-83
2021/11/07 07:00:53;;;;;;;19.88;14.27;;;2.70;99.90;;;;;;4982075;28;20214;-83
2021/11/07 07:03:19;;;;;;;27.42;15.55;;;2.80;99.90;;;;;;4980940;28;20226;-83
2021/11/07 07:05:46;;;;;;;23.10;16.38;;;2.80;99.90;;;;;;4985243;28;20209;-83
2021/11/07 07:08:17;;;;;;;21.35;15.65;;;2.90;99.90;;;;;;5000327;28;20695;-84
2021/11/07 07:10:51;;;;;;;21.67;14.02;;;3.00;99.90;;;;;;4998726;28;20207;-83
2021/11/07 07:13:25;;;;;;;23.88;17.00;;;3.00;99.90;;;;;;4999580;28;20288;-83
2021/11/07 07:16:00;;;;;;;21.73;15.90;;;3.10;99.90;;;;;;4995400;28;20198;-83
2021/11/07 07:18:34;;;;;;;22.52;15.60;;;3.00;99.90;;;;;;4980310;28;20244;-83
2021/11/07 07:21:11;;;;;;;22.08;14.55;;;3.10;99.90;;;;;;4985604;28;20214;-83
2021/11/07 07:24:11;;;;;;;21.80;13.45;;;3.10;99.90;;;;;;4998827;28;20642;-84
2021/11/07 07:29:31;;;;;;;18.38;14.25;;;3.30;99.90;;;;;;5013304;28;20267;-82
2021/11/07 07:34:43;;;;;;;21.50;14.73;;;3.30;99.90;;;;;;4989159;28;20237;-83
2021/11/07 07:37:11;;;;;;;24.75;14.75;;;3.40;99.90;;;;;;5018443;28;20217;-83
2021/11/07 07:39:38;;;;;;;22.58;14.52;;;3.50;99.90;;;;;;5012488;28;20225;-83
2021/11/07 07:42:05;;;;;;;20.73;15.85;;;3.50;99.90;;;;;;4999929;28;20577;-83
2021/11/07 07:44:34;;;;;;;21.45;13.80;;;3.60;99.90;;;;;;5000211;28;20218;-83
2021/11/07 07:47:01;;;;;;;23.38;16.98;;;3.60;99.90;;;;;;4989899;28;20567;-83
2021/11/07 07:49:28;;;;;;;14.95;8.90;;;3.80;99.90;;;;;;4991581;28;20210;-85
2021/11/07 07:51:57;;;;;;;23.10;13.23;;;3.80;99.90;;;;;;4999601;28;20246;-84
2021/11/07 07:54:24;;;;;;;18.60;13.25;;;4.00;99.90;;;;;;4991154;28;20204;-84
2021/11/07 07:56:51;;;;;;;21.88;15.85;;;4.10;99.90;;;;;;4980471;28;20211;-84
2021/11/07 07:59:19;;;;;;;18.67;13.40;;;4.30;99.90;;;;;;4987675;28;20286;-83
2021/11/07 08:01:47;;;;;;;17.98;14.05;;;4.50;99.90;;;;;;5000019;28;20649;-84
2021/11/07 08:04:14;;;;;;;24.88;16.15;;;4.60;99.90;;;;;;4998955;28;20215;-84
2021/11/07 08:06:41;;;;;;;18.67;12.77;;;4.80;99.90;;;;;;5001622;28;20203;-83
2021/11/07 08:09:08;;;;;;;13.40;11.60;;;4.80;99.90;;;;;;5010426;28;20225;-83
2021/11/07 08:11:35;;;;;;;16.42;13.68;;;4.80;99.90;;;;;;4996235;28;20198;-82
2021/11/07 08:14:02;;;;;;;19.00;14.13;;;4.80;99.90;;;;;;4982485;28;20217;-83
2021/11/07 08:16:30;;;;;;;17.73;12.35;;;4.90;99.90;;;;;;5000228;28;20572;-83
2021/11/07 08:18:58;;;;;;;18.70;13.10;;;4.80;99.90;;;;;;4998464;28;20215;-83
2021/11/07 08:21:26;;;;;;;19.30;14.93;;;4.80;99.90;;;;;;4980861;28;20631;-83
2021/11/07 08:23:53;;;;;;;12.63;10.68;;;4.80;99.90;;;;;;4985024;28;20227;-83
2021/11/07 08:26:21;;;;;;;13.30;9.68;;;4.90;99.90;;;;;;4999743;28;20235;-83
2021/11/07 08:28:49;;;;;;;15.27;9.77;;;5.00;99.90;;;;;;4999066;28;20222;-83
2021/11/07 08:31:21;;;;;;;14.07;10.95;;;4.90;99.90;;;;;;4999224;28;20216;-83
2021/11/07 08:33:48;;;;;;;12.75;10.52;;;5.00;99.90;;;;;;4998942;28;20227;-84
2021/11/07 08:36:22;;;;;;;15.13;11.10;;;5.00;99.90;;;;;;4991252;28;20205;-84
2021/11/07 08:38:52;;;;;;;13.80;10.35;;;5.00;99.90;;;;;;4985260;28;20728;-83
2021/11/07 08:41:20;;;;;;;15.40;13.80;;;5.00;99.90;;;;;;4998424;28;20208;-85
2021/11/07 09:00:21;;;;;;;16.55;10.70;;;5.20;99.90;;;;;;4998839;28;20294;-85
2021/11/07 09:02:56;;;;;;;13.05;10.88;;;5.20;99.90;;;;;;4998985;28;20231;-85
2021/11/07 09:05:28;;;;;;;13.52;10.35;;;5.30;99.90;;;;;;4998215;28;20207;-85
2021/11/07 09:08:13;;;;;;;10.15;8.90;;;5.50;99.90;;;;;;4998999;28;20251;-84
2021/11/07 09:10:42;;;;;;;10.88;8.25;;;5.50;99.90;;;;;;4999217;28;20235;-86
2021/11/07 09:13:10;;;;;;;11.55;9.15;;;5.60;99.90;;;;;;5000595;28;20318;-85
2021/11/07 09:15:40;;;;;;;13.27;10.27;;;5.50;99.90;;;;;;4985760;28;20212;-84
2021/11/07 09:18:07;;;;;;;14.57;9.73;;;5.60;99.90;;;;;;4982161;28;20286;-86
2021/11/07 09:20:40;;;;;;;8.80;7.40;;;5.80;99.90;;;;;;4982071;28;20216;-85
2021/11/07 09:23:12;;;;;;;8.95;7.53;;;6.00;99.90;;;;;;4979722;28;20323;-81
2021/11/07 09:25:42;;;;;;;11.77;7.90;;;6.00;99.90;;;;;;4976391;28;20662;-85
2021/11/07 09:28:14;;;;;;;13.77;11.18;;;6.10;99.90;;;;;;4991831;28;20311;-84
2021/11/07 09:30:49;;;;;;;9.82;8.32;;;6.30;99.90;;;;;;4986339;28;20203;-84
2021/11/07 09:33:22;;;;;;;10.65;8.45;;;6.40;99.90;;;;;;4972827;28;20223;-84
2021/11/07 09:36:14;;;;;;;9.15;8.13;;;6.70;99.90;;;;;;4979921;28;20197;-83
2021/11/07 09:38:52;;;;;;;7.43;5.47;;;6.90;99.90;;;;;;4980182;28;20709;-84
2021/11/07 09:41:28;;;;;;;8.38;6.95;;;7.10;99.90;;;;;;4987323;28;20195;-84
2021/11/07 09:43:58;;;;;;;9.27;8.10;;;7.20;99.90;;;;;;5000118;28;20286;-84
2021/11/07 09:46:34;;;;;;;8.00;6.97;;;7.50;99.90;;;;;;4999454;28;20208;-84
2021/11/07 09:49:13;;;;;;;8.95;8.05;;;7.70;99.90;;;;;;5004375;28;20274;-85
2021/11/07 09:51:41;;;;;;;8.45;7.57;;;7.90;99.90;;;;;;5006521;28;20564;-85
2021/11/07 09:54:12;;;;;;;7.82;6.22;;;8.00;99.90;;;;;;5007070;28;20250;-85
2021/11/07 09:56:45;;;;;;;6.78;5.68;;;8.00;99.90;;;;;;4986204;28;20223;-85
2021/11/07 09:59:13;;;;;;;6.97;6.20;;;8.30;99.90;;;;;;4990905;28;20197;-85
2021/11/07 10:01:41;;;;;;;6.95;6.13;;;8.40;99.90;;;;;;4991851;28;20208;-83
2021/11/07 10:04:09;;;;;;;6.57;5.95;;;8.40;99.90;;;;;;4989985;28;20230;-81
2021/11/07 10:06:42;;;;;;;5.05;4.55;;;8.50;99.90;;;;;;4994852;28;20240;-82
2021/11/07 10:09:12;;;;;;;5.25;4.50;;;8.50;99.90;;;;;;4995710;28;20267;-82
2021/11/07 10:12:01;;;;;;;7.28;6.53;;;8.50;99.90;;;;;;4991869;28;20218;-82
2021/11/07 10:14:40;;;;;;;6.25;5.05;;;8.60;99.90;;;;;;4969239;28;20213;-83
2021/11/07 10:17:23;;;;;;;4.72;4.32;;;8.40;99.90;;;;;;4973926;28;20220;-83
2021/11/07 10:19:58;;;;;;;4.68;4.28;;;8.20;99.90;;;;;;5000192;28;20296;-82
2021/11/07 10:22:25;;;;;;;5.40;4.95;;;8.40;99.90;;;;;;4994336;28;20266;-82
2021/11/07 10:27:50;;;;;;;5.38;4.78;;;8.90;99.90;;;;;;4971682;28;20212;-84
2021/11/07 10:30:28;;;;;;;6.45;5.53;;;9.20;99.90;;;;;;4981151;28;20204;-82
2021/11/07 10:33:12;;;;;;;4.47;3.58;;;9.40;99.90;;;;;;4989994;28;20303;-84
2021/11/07 10:41:32;;;;;;;5.87;4.40;;;10.40;99.90;;;;;;4958874;29;20437;-84
2021/11/07 10:44:20;;;;;;;5.20;4.10;;;10.70;99.90;;;;;;4979852;28;20486;-83
2021/11/07 10:47:12;;;;;;;6.70;3.43;;;10.80;99.40;;;;;;4961607;28;20511;-82
2021/11/07 10:52:49;;;;;;;4.27;3.97;;;11.10;99.90;;;;;;5002514;28;20449;-85
2021/11/07 10:55:26;;;;;;;5.70;3.40;;;11.40;99.30;;;;;;4987455;28;20466;-84
2021/11/07 10:57:56;;;;;;;3.23;3.03;;;11.70;98.50;;;;;;4982141;28;20528;-85
2021/11/07 11:00:28;;;;;;;2.67;2.37;;;12.00;98.60;;;;;;4982909;28;20455;-85
2021/11/07 11:02:57;;;;;;;2.50;2.30;;;12.20;97.70;;;;;;4981922;28;20526;-85
2021/11/07 11:05:29;;;;;;;2.07;1.97;;;12.40;97.40;;;;;;4982608;28;21001;-84
2021/11/07 11:08:04;;;;;;;1.73;1.63;;;12.60;96.20;;;;;;4983794;28;20483;-85
2021/11/07 11:10:39;;;;;;;2.03;1.93;;;12.70;95.20;;;;;;5003060;28;20457;-85
2021/11/07 11:13:14;;;;;;;2.77;2.37;;;12.40;94.80;;;;;;5010812;28;20496;-84
2021/11/07 11:16:00;;;;;;;2.27;1.90;;;12.20;95.00;;;;;;4995250;28;20465;-84
2021/11/07 11:18:46;;;;;;;2.13;2.00;;;11.80;96.30;;;;;;4990398;28;20467;-85
2021/11/07 11:27:14;;;;;;;1.80;1.70;;;11.30;96.60;;;;;;5004065;28;20429;-86
2021/11/07 11:29:57;;;;;;;3.57;1.77;;;11.40;96.80;;;;;;4988857;28;20514;-85
2021/11/07 11:32:48;;;;;;;2.30;1.50;;;11.30;97.40;;;;;;4987852;28;20510;-85
2021/11/07 11:35:21;;;;;;;1.77;1.63;;;11.60;97.50;;;;;;4990104;28;20446;-85
2021/11/07 11:37:57;;;;;;;1.63;1.53;;;11.50;96.40;;;;;;4989892;28;20487;-84
2021/11/07 11:40:29;;;;;;;1.03;0.90;;;11.00;97.00;;;;;;5004763;28;20459;-84
2021/11/07 11:43:09;;;;;;;1.95;1.75;;;10.50;97.40;;;;;;5009225;28;20472;-85
2021/11/07 11:45:42;;;;;;;1.58;1.45;;;10.50;98.40;;;;;;4990211;28;20202;-85
2021/11/07 11:49:02;;;;;;;1.45;1.00;;;10.40;98.80;;;;;;4991164;28;20613;-85
2021/11/07 11:52:06;;;;;;;1.00;1.00;;;10.50;98.70;;;;;;4985960;28;20205;-84
2021/11/07 11:57:49;;;;;;;0.87;0.87;;;10.50;98.70;;;;;;4929172;29;20472;-85
2021/11/07 12:07:34;;;;;;;3.10;2.10;;;10.90;98.60;;;;;;4900925;29;20460;-85
2021/11/07 12:10:07;;;;;;;0.80;0.80;;;10.80;98.80;;;;;;4892054;29;20505;-84
2021/11/07 12:16:02;;;;;;;1.30;1.20;;;11.20;98.00;;;;;;4959859;28;20435;-85
2021/11/07 12:18:31;;;;;;;0.87;0.87;;;11.40;97.50;;;;;;4967294;28;20463;-85
2021/11/07 12:20:58;;;;;;;1.20;1.10;;;11.30;97.30;;;;;;4982976;28;20484;-85
2021/11/07 12:23:30;;;;;;;1.80;1.70;;;11.40;97.50;;;;;;4981973;28;20826;-85
2021/11/07 12:25:58;;;;;;;0.70;0.70;;;11.70;97.00;;;;;;4982322;28;20451;-84
2021/11/07 12:28:42;;;;;;;1.17;0.80;;;12.50;96.70;;;;;;4982813;28;20486;-85
2021/11/07 12:31:09;;;;;;;0.60;0.60;;;13.40;95.80;;;;;;4983573;28;20438;-86
2021/11/07 12:33:53;;;;;;;1.23;1.13;;;14.20;94.30;;;;;;4983024;28;20478;-85
2021/11/07 12:36:37;;;;;;;1.00;0.90;;;15.20;92.80;;;;;;4982823;28;20454;-85
2021/11/07 12:42:09;;;;;;;0.80;0.80;;;16.80;90.30;;;;;;4983258;28;21007;-85
2021/11/07 12:44:36;;;;;;;0.90;0.90;;;17.60;88.30;;;;;;4982946;28;20975;-85
2021/11/07 12:47:06;;;;;;;1.33;1.00;;;15.90;88.60;;;;;;4983923;28;20455;-85
2021/11/07 13:28:15;;;;;;;1.10;0.82;;;10.80;99.90;;;;;;4783195;29;20220;-84
2021/11/07 13:31:10;;;;;;;1.40;1.10;;;10.50;99.90;;;;;;4848522;29;20271;-85
2021/11/07 13:33:42;;;;;;;1.20;1.10;;;10.40;99.90;;;;;;4938131;29;20224;-85
2021/11/07 13:36:11;;;;;;;2.30;0.93;;;10.50;99.90;;;;;;4945330;29;20693;-83
2021/11/07 13:38:44;;;;;;;1.08;1.08;;;10.60;99.90;;;;;;4980303;28;20490;-83
2021/11/07 13:41:16;;;;;;;0.80;0.80;;;10.50;99.90;;;;;;4984792;28;20225;-84
2021/11/07 13:43:45;;;;;;;1.08;0.98;;;10.50;99.90;;;;;;4980573;28;20222;-84
2021/11/07 13:46:14;;;;;;;1.90;1.37;;;10.60;99.90;;;;;;4982906;28;20207;-84
2021/11/07 13:49:01;;;;;;;0.90;0.90;;;10.40;99.90;;;;;;4981179;28;20463;-84
2021/11/07 13:51:49;;;;;;;1.00;0.93;;;10.40;99.90;;;;;;4982444;28;20294;-85
2021/11/07 13:54:16;;;;;;;1.23;1.20;;;10.30;99.90;;;;;;4979597;28;20480;-84
2021/11/07 13:56:45;;;;;;;1.05;0.95;;;10.50;99.90;;;;;;4982487;28;20205;-84
2021/11/07 13:59:12;;;;;;;0.93;0.93;;;10.40;99.90;;;;;;4981551;28;20205;-85
2021/11/07 14:01:40;;;;;;;1.20;1.10;;;10.40;99.90;;;;;;4980800;28;20455;-84
2021/11/07 14:04:08;;;;;;;0.82;0.82;;;10.50;99.90;;;;;;4982071;28;20796;-84
2021/11/07 14:06:37;;;;;;;1.30;1.20;;;10.50;99.90;;;;;;4981922;28;20293;-85
2021/11/07 14:09:09;;;;;;;0.75;0.73;;;10.40;99.90;;;;;;4981768;28;20489;-84
2021/11/07 14:11:39;;;;;;;0.90;0.90;;;10.20;99.90;;;;;;4979997;28;20210;-84
2021/11/07 14:14:12;;;;;;;0.80;0.80;;;10.40;99.90;;;;;;4983495;28;20217;-84
2021/11/07 14:16:59;;;;;;;0.93;0.93;;;10.30;99.90;;;;;;4966675;28;20458;-85
2021/11/07 14:19:31;;;;;;;0.85;0.85;;;10.20;99.90;;;;;;4981070;28;20206;-83
2021/11/07 14:22:02;;;;;;;1.25;0.82;;;10.20;99.90;;;;;;4979968;28;20254;-81
2021/11/07 14:24:32;;;;;;;3.47;1.17;;;10.40;99.90;;;;;;4988001;28;20234;-80
2021/11/07 14:27:03;;;;;;;0.57;0.57;;;10.30;99.90;;;;;;4987009;28;20464;-80
2021/11/07 14:29:34;;;;;;;1.77;1.20;;;9.90;99.90;;;;;;4987650;28;20231;-81
2021/11/07 14:32:10;;;;;;;1.27;0.95;;;9.90;99.90;;;;;;4990845;28;20453;-80
2021/11/07 14:34:43;;;;;;;1.10;0.77;;;9.80;99.90;;;;;;4984364;28;20670;-81
2021/11/07 14:37:15;;;;;;;1.75;1.65;;;9.80;99.90;;;;;;4981737;28;20344;-81